Haines, AK (99827)

1:55 PM AKST on December 08, 2016 (GMT -0900)
Letnikof Cove | | Change Station

Elev 230 ft 59.17 °N, 135.39 °W | Updated 13 seconds ago

Clear
Clear
19.8 °F
Feels Like 8 °F
N
11.0
Wind Variable Wind from North
Gusts 11.6 mph

Today
High -- | Low -- °F
--% Chance of Precip.
Yesterday
High -- | Low -- °F
Precip. -- in
Pressure 30.40 in
Visibility 10.0 miles
Clouds Clear
Windchill 8 °F
Dew Point 6 °F
Humidity 54%
Rainfall 0.00 in
Snow Depth Not available.
8:44 AM 3:03 PM
Waxing Gibbous, 67% visible
METAR PAHN 082154Z AUTO 32010G24KT 10SM CLR M09/M14 A3039 RMK AO2 SLP292 T10941144 TSNO
Pressure 30.40 in
Visibility 10.0 miles
Clouds Clear
Windchill 8 °F
Dew Point 6 °F
Humidity 54%
Rainfall 0.00 in
Snow Depth Not available.
8:44 AM 3:03 PM
Waxing Gibbous, 67% visible
METAR PAHN 082154Z AUTO 32010G24KT 10SM CLR M09/M14 A3039 RMK AO2 SLP292 T10941144 TSNO

10-Day Weather Forecast

Almanac

Astronomy

Dec. 08, 2016 Rise Set
Actual Time
Civil Twilight
Nautical Twilight
Astronomical Twilight
Moon
Length of Visible Light
Length of Day
Tomorrow will be .
, % of the Moon is Illuminated

Today's Extremes

State Highs State Lows

Community

WunderPhotos

Upload Photos

1,956,277 photos uploaded!

WunderBlog® & News

Nearby

Air Quality

  Air Quality AQ Index Pollutant
Not available.

Snow Depth

Station Depth Elevation

Earthquake Activity

City Distance Mag. Time & Date
Minimum magnitude displayed is 2.5.

Coastal Water Temperatures

Place Temperature

Stations

Nearby Weather Stations

Station Location Temp. Windchill Dew Point Humidity Wind Precip. Elev Updated Type
                   

Watches & Warnings

There are currently no watches in effect.